createdAt,value
2023-02-26T00:04:56.808Z,7.7
2023-02-26T00:09:56.794Z,7.6
2023-02-26T00:14:56.801Z,7.6
2023-02-26T00:19:56.780Z,7.5
2023-02-26T00:24:56.774Z,7.5
2023-02-26T00:29:56.799Z,7.4
2023-02-26T00:34:56.806Z,7.4
2023-02-26T00:39:56.817Z,7.4
2023-02-26T00:44:56.794Z,7.3
2023-02-26T00:49:56.888Z,7.2
2023-02-26T00:54:56.944Z,7.2
2023-02-26T00:59:56.767Z,7.2
2023-02-26T01:04:56.847Z,7.1
2023-02-26T01:09:56.785Z,7.1
2023-02-26T01:14:56.849Z,7.1
2023-02-26T01:19:56.767Z,7
2023-02-26T01:24:56.825Z,6.9
2023-02-26T01:30:01.811Z,6.9
2023-02-26T01:34:56.809Z,6.8
2023-02-26T01:39:56.831Z,6.8
2023-02-26T01:44:56.800Z,6.7
2023-02-26T01:49:56.828Z,6.7
2023-02-26T01:54:56.857Z,6.7
2023-02-26T01:59:56.877Z,6.6
2023-02-26T02:04:56.857Z,6.6
2023-02-26T02:09:56.884Z,6.5
2023-02-26T02:14:56.794Z,6.5
2023-02-26T02:19:56.828Z,6.4
2023-02-26T02:24:56.822Z,6.3
2023-02-26T02:29:56.878Z,6.3
2023-02-26T02:34:56.852Z,6.3
2023-02-26T02:39:56.837Z,6.3
2023-02-26T02:44:56.830Z,6.2
2023-02-26T02:49:56.862Z,6.2
2023-02-26T02:54:56.885Z,6.2
2023-02-26T02:59:57.364Z,6.2
2023-02-26T03:04:56.938Z,6.2
2023-02-26T03:09:57.511Z,6.1
2023-02-26T03:14:56.885Z,6.1
2023-02-26T03:19:56.842Z,6.1
2023-02-26T03:24:56.855Z,6.1
2023-02-26T03:29:56.872Z,6
2023-02-26T03:34:56.879Z,6
2023-02-26T03:39:56.845Z,6
2023-02-26T03:44:56.860Z,5.9
2023-02-26T03:49:56.912Z,5.9
2023-02-26T03:54:57.807Z,5.9
2023-02-26T03:59:56.950Z,5.8
2023-02-26T04:04:56.908Z,5.8
2023-02-26T04:09:56.883Z,5.8
2023-02-26T04:14:56.839Z,5.7
2023-02-26T04:19:56.848Z,5.7
2023-02-26T04:24:56.838Z,5.7
2023-02-26T04:29:56.864Z,5.7
2023-02-26T04:34:56.943Z,5.7
2023-02-26T04:39:56.865Z,5.7
2023-02-26T04:44:56.879Z,5.7
2023-02-26T04:49:56.950Z,5.7
2023-02-26T04:54:56.872Z,5.6
2023-02-26T04:59:56.904Z,5.7
2023-02-26T05:04:56.886Z,5.6
2023-02-26T05:09:56.902Z,5.5
2023-02-26T05:14:56.905Z,5.5
2023-02-26T05:19:56.928Z,5.5
2023-02-26T05:24:56.902Z,5.5
2023-02-26T05:29:56.878Z,5.5
2023-02-26T05:34:56.943Z,5.5
2023-02-26T05:39:56.885Z,5.5
2023-02-26T05:49:57.335Z,5.4
2023-02-26T05:54:57.167Z,5.3
2023-02-26T05:59:57.205Z,5.3
2023-02-26T06:04:57.187Z,5.3
2023-02-26T06:09:57.188Z,5.3
2023-02-26T06:14:57.205Z,5.3
2023-02-26T06:19:57.211Z,5.3
2023-02-26T06:24:57.194Z,5.3
2023-02-26T06:29:58.159Z,5.3
2023-02-26T06:34:57.202Z,5.2
2023-02-26T06:39:57.173Z,5.2
2023-02-26T06:44:57.253Z,5.2
2023-02-26T06:49:57.218Z,5.1
2023-02-26T06:54:57.212Z,5.1
2023-02-26T06:59:57.224Z,5.1
2023-02-26T07:04:57.221Z,5.1
2023-02-26T07:09:57.193Z,5.1
2023-02-26T07:14:57.228Z,5.1
2023-02-26T07:19:57.221Z,5.2
2023-02-26T07:24:57.199Z,5.2
2023-02-26T07:29:57.181Z,5.2
2023-02-26T07:34:57.217Z,5.2
2023-02-26T07:39:57.216Z,5.3
2023-02-26T07:44:57.295Z,5.4
2023-02-26T07:49:57.224Z,5.4
2023-02-26T07:54:57.163Z,5.5
2023-02-26T07:59:57.214Z,5.6
2023-02-26T08:04:57.356Z,5.6
2023-02-26T08:09:57.455Z,5.7
2023-02-26T08:14:57.175Z,5.9
2023-02-26T08:19:57.236Z,6.2
2023-02-26T08:25:02.283Z,6.4
2023-02-26T08:29:57.268Z,6.4
2023-02-26T08:34:57.274Z,6.4
2023-02-26T08:39:57.269Z,6.4
2023-02-26T08:44:57.245Z,6.5
2023-02-26T08:49:57.200Z,6.6
2023-02-26T08:54:57.307Z,6.7
2023-02-26T08:59:57.232Z,6.8
2023-02-26T09:04:57.292Z,6.9
2023-02-26T09:09:57.338Z,7
2023-02-26T09:14:57.258Z,7.1
2023-02-26T09:19:57.287Z,7.2
2023-02-26T09:24:57.330Z,7.3
2023-02-26T09:29:57.258Z,7.5
2023-02-26T09:34:57.244Z,7.6
2023-02-26T09:39:57.294Z,7.7
2023-02-26T09:44:57.195Z,7.9
2023-02-26T09:49:57.234Z,8
2023-02-26T09:54:57.248Z,8.1
2023-02-26T09:59:57.256Z,8.2
2023-02-26T10:04:57.269Z,8.4
2023-02-26T10:09:57.277Z,8.5
2023-02-26T10:14:57.488Z,8.6
2023-02-26T10:19:57.346Z,8.7
2023-02-26T10:24:57.326Z,8.9
2023-02-26T10:29:57.470Z,9
2023-02-26T10:34:57.329Z,9.2
2023-02-26T10:39:57.303Z,9.3
2023-02-26T10:44:57.309Z,9.4
2023-02-26T10:49:57.237Z,9.4
2023-02-26T10:54:57.297Z,9.4
2023-02-26T10:59:57.386Z,9.3
2023-02-26T11:05:07.048Z,9.3
2023-02-26T11:09:57.299Z,9.4
2023-02-26T11:14:57.294Z,9.3
2023-02-26T11:19:57.295Z,9.3
2023-02-26T11:24:57.266Z,9.5
2023-02-26T11:29:57.302Z,9.7
2023-02-26T11:34:57.287Z,10
2023-02-26T11:39:57.357Z,10.3
2023-02-26T11:44:57.292Z,10.4
2023-02-26T11:49:57.343Z,10.5
2023-02-26T11:54:57.254Z,10.6
2023-02-26T11:59:57.309Z,10.7
2023-02-26T12:04:57.280Z,11
2023-02-26T12:09:57.303Z,11.2
2023-02-26T12:14:57.313Z,11.3
2023-02-26T12:19:57.285Z,11.3
2023-02-26T12:24:57.324Z,11.5
2023-02-26T12:29:59.450Z,11.5
2023-02-26T12:34:57.284Z,11.4
2023-02-26T12:39:57.302Z,11.5
2023-02-26T12:44:57.317Z,11.5
2023-02-26T12:49:57.392Z,11.6
2023-02-26T12:54:58.460Z,11.4
2023-02-26T12:59:57.711Z,11.3
2023-02-26T13:04:57.388Z,11.2
2023-02-26T13:09:57.683Z,11.3
2023-02-26T13:14:57.689Z,11.6
2023-02-26T13:19:58.123Z,11.8
2023-02-26T13:25:00.917Z,11.9
2023-02-26T13:29:57.385Z,11.8
2023-02-26T13:34:57.412Z,11.7
2023-02-26T13:39:57.452Z,11.9
2023-02-26T13:44:57.366Z,12.1
2023-02-26T13:49:57.397Z,12.3
2023-02-26T13:54:57.354Z,12.4
2023-02-26T13:59:57.373Z,12.3
2023-02-26T14:04:57.301Z,12.1
2023-02-26T14:09:57.367Z,12.3
2023-02-26T14:14:57.359Z,12.2
2023-02-26T14:19:57.374Z,12
2023-02-26T14:24:57.354Z,11.9
2023-02-26T14:29:57.389Z,12.1
2023-02-26T14:34:57.552Z,12.1
2023-02-26T14:39:57.357Z,12
2023-02-26T14:44:57.376Z,12
2023-02-26T14:49:57.428Z,12
2023-02-26T14:54:57.330Z,12.1
2023-02-26T14:59:57.380Z,12
2023-02-26T15:04:57.619Z,11.9
2023-02-26T15:09:57.380Z,12
2023-02-26T15:14:57.382Z,12.3
2023-02-26T15:19:57.826Z,12.7
2023-02-26T15:24:57.413Z,13
2023-02-26T15:29:57.378Z,13.5
2023-02-26T15:34:57.404Z,13.9
2023-02-26T15:39:57.355Z,14.1
2023-02-26T15:44:57.436Z,14.3
2023-02-26T15:49:57.437Z,14.5
2023-02-26T15:54:57.367Z,14.1
2023-02-26T15:59:57.402Z,13.3
2023-02-26T16:04:57.354Z,12.6
2023-02-26T16:09:57.411Z,11.9
2023-02-26T16:14:57.453Z,11.3
2023-02-26T16:19:57.425Z,10.8
2023-02-26T16:24:57.376Z,10.5
2023-02-26T16:29:57.416Z,10.3
2023-02-26T16:34:57.394Z,10
2023-02-26T16:39:57.522Z,9.8
2023-02-26T16:44:57.542Z,9.6
2023-02-26T16:49:57.422Z,9.5
2023-02-26T16:54:57.421Z,9.4
2023-02-26T16:59:57.429Z,9.2
2023-02-26T17:04:57.405Z,9.1
2023-02-26T17:09:57.540Z,9
2023-02-26T17:14:57.459Z,9
2023-02-26T17:19:57.382Z,8.8
2023-02-26T17:24:57.457Z,8.7
2023-02-26T17:29:57.478Z,8.6
2023-02-26T17:34:57.443Z,8.5
2023-02-26T17:39:57.432Z,8.4
2023-02-26T17:44:57.477Z,8.4
2023-02-26T17:49:57.455Z,8.3
2023-02-26T17:54:57.454Z,8.3
2023-02-26T17:59:57.463Z,8.2
2023-02-26T18:04:57.526Z,8.2
2023-02-26T18:09:57.487Z,8.1
2023-02-26T18:14:57.477Z,8
2023-02-26T18:19:57.729Z,8
2023-02-26T18:24:57.464Z,7.9
2023-02-26T18:29:57.473Z,7.9
2023-02-26T18:34:57.475Z,7.8
2023-02-26T18:39:57.446Z,7.8
2023-02-26T18:44:57.461Z,7.8
2023-02-26T18:49:57.458Z,7.7
2023-02-26T18:54:57.442Z,7.7
2023-02-26T18:59:57.480Z,7.6
2023-02-26T19:04:57.463Z,7.6
2023-02-26T19:09:57.470Z,7.5
2023-02-26T19:14:57.473Z,7.5
2023-02-26T19:19:57.449Z,7.4
2023-02-26T19:24:57.440Z,7.4
2023-02-26T19:29:57.474Z,7.3
2023-02-26T19:34:57.459Z,7.3
2023-02-26T19:39:57.480Z,7.2
2023-02-26T19:44:58.595Z,7.2
2023-02-26T19:49:57.515Z,7.1
2023-02-26T19:54:57.519Z,7.1
2023-02-26T19:59:57.491Z,7
2023-02-26T20:04:57.499Z,7
2023-02-26T20:09:57.516Z,7
2023-02-26T20:14:57.778Z,7
2023-02-26T20:19:57.641Z,7
2023-02-26T20:24:58.036Z,6.9
2023-02-26T20:29:57.552Z,6.9
2023-02-26T20:34:58.034Z,6.8
2023-02-26T20:39:57.508Z,6.8
2023-02-26T20:44:57.510Z,6.8
2023-02-26T20:49:58.035Z,6.8
2023-02-26T20:54:57.803Z,6.7
2023-02-26T20:59:57.510Z,6.7
2023-02-26T21:04:57.463Z,6.6
2023-02-26T21:09:57.640Z,6.6
2023-02-26T21:14:57.530Z,6.5
2023-02-26T21:19:57.554Z,6.5
2023-02-26T21:24:57.548Z,6.4
2023-02-26T21:29:57.527Z,6.4
2023-02-26T21:34:57.528Z,6.3
2023-02-26T21:39:57.477Z,6.3
2023-02-26T21:44:57.461Z,6.3
2023-02-26T21:49:57.518Z,6.3
2023-02-26T21:54:57.533Z,6.2
2023-02-26T21:59:57.502Z,6.2
2023-02-26T22:04:57.502Z,6.1
2023-02-26T22:09:58.928Z,6
2023-02-26T22:14:57.492Z,6
2023-02-26T22:19:57.545Z,6
2023-02-26T22:24:57.722Z,5.9
2023-02-26T22:29:57.540Z,5.9
2023-02-26T22:34:57.514Z,5.9
2023-02-26T22:39:57.528Z,5.8
2023-02-26T22:44:57.506Z,5.8
2023-02-26T22:49:57.548Z,5.8
2023-02-26T22:54:57.553Z,5.7
2023-02-26T22:59:57.702Z,5.7
2023-02-26T23:04:57.616Z,5.7
2023-02-26T23:09:57.585Z,5.7
2023-02-26T23:14:57.557Z,5.6
2023-02-26T23:19:57.838Z,5.6
2023-02-26T23:24:57.579Z,5.6
2023-02-26T23:29:57.633Z,5.5
2023-02-26T23:34:57.601Z,5.5
2023-02-26T23:39:57.596Z,5.5
2023-02-26T23:44:57.609Z,5.4
2023-02-26T23:49:58.402Z,5.5
2023-02-26T23:54:57.595Z,5.4
2023-02-26T23:59:57.854Z,5.4
